createdAt,value
2022-10-22T00:00:18.040Z,1013.93
2022-10-22T00:01:18.643Z,1013.96
2022-10-22T00:02:19.286Z,1013.93
2022-10-22T00:03:19.882Z,1013.86
2022-10-22T00:04:20.482Z,1013.84
2022-10-22T00:05:21.081Z,1013.86
2022-10-22T00:06:21.681Z,1013.92
2022-10-22T00:07:22.282Z,1013.79
2022-10-22T00:08:22.885Z,1013.89
2022-10-22T00:09:23.482Z,1013.82
2022-10-22T00:10:24.082Z,1013.74
2022-10-22T00:11:24.685Z,1013.80
2022-10-22T00:12:25.279Z,1013.82
2022-10-22T00:13:25.884Z,1013.77
2022-10-22T00:14:26.484Z,1013.72
2022-10-22T00:15:27.081Z,1013.72
2022-10-22T00:16:27.681Z,1013.79
2022-10-22T00:17:28.282Z,1013.79
2022-10-22T00:18:28.883Z,1013.77
2022-10-22T00:19:29.555Z,1013.71
2022-10-22T00:20:30.128Z,1013.69
2022-10-22T00:21:30.725Z,1013.70
2022-10-22T00:22:31.324Z,1013.71
2022-10-22T00:23:31.925Z,1013.72
2022-10-22T00:24:32.601Z,1013.68
2022-10-22T00:25:34.041Z,1013.64
2022-10-22T00:26:34.643Z,1013.64
2022-10-22T00:27:35.245Z,1013.60
2022-10-22T00:28:35.846Z,1013.68
2022-10-22T00:29:36.447Z,1013.62
2022-10-22T00:30:37.050Z,1013.65
2022-10-22T00:31:38.054Z,1013.64
2022-10-22T00:32:39.013Z,1013.63
2022-10-22T00:33:39.781Z,1013.68
2022-10-22T00:34:40.384Z,1013.56
2022-10-22T00:35:41.034Z,1013.70
2022-10-22T00:36:41.636Z,1013.66
2022-10-22T00:37:42.235Z,1013.66
2022-10-22T00:38:42.842Z,1013.61
2022-10-22T00:39:43.440Z,1013.68
2022-10-22T00:40:44.184Z,1013.62
2022-10-22T00:41:44.780Z,1013.68
2022-10-22T00:42:45.377Z,1013.73
2022-10-22T00:43:45.982Z,1013.67
2022-10-22T00:44:46.912Z,1013.62
2022-10-22T00:45:47.509Z,1013.62
2022-10-22T00:46:48.108Z,1013.61
2022-10-22T00:47:48.707Z,1013.59
2022-10-22T00:48:49.360Z,1013.61
2022-10-22T00:49:49.993Z,1013.55
2022-10-22T00:50:50.637Z,1013.52
2022-10-22T00:51:51.236Z,1013.53
2022-10-22T00:52:51.835Z,1013.49
2022-10-22T00:53:52.432Z,1013.49
2022-10-22T00:54:53.033Z,1013.39
2022-10-22T00:55:53.631Z,1013.33
2022-10-22T00:56:54.229Z,1013.40
2022-10-22T00:57:55.349Z,1013.33
2022-10-22T00:58:55.991Z,1013.31
2022-10-22T00:59:56.611Z,1013.32
2022-10-22T01:00:57.263Z,1013.30
2022-10-22T01:01:57.881Z,1013.24
2022-10-22T01:02:58.483Z,1013.24
2022-10-22T01:03:59.087Z,1013.22
2022-10-22T01:04:59.688Z,1013.25
2022-10-22T01:06:00.292Z,1013.23
2022-10-22T01:07:00.895Z,1013.25
2022-10-22T01:08:01.582Z,1013.20
2022-10-22T01:09:02.456Z,1013.19
2022-10-22T01:10:03.071Z,1013.26
2022-10-22T01:11:03.670Z,1013.15
2022-10-22T01:12:04.276Z,1013.22
2022-10-22T01:13:04.870Z,1013.15
2022-10-22T01:14:05.467Z,1013.13
2022-10-22T01:15:06.067Z,1013.15
2022-10-22T01:16:06.670Z,1013.11
2022-10-22T01:17:07.337Z,1013.15
2022-10-22T01:18:07.968Z,1013.21
2022-10-22T01:19:08.562Z,1013.14
2022-10-22T01:20:09.164Z,1013.12
2022-10-22T01:21:09.760Z,1013.20
2022-10-22T01:22:10.361Z,1013.19
2022-10-22T01:23:10.960Z,1013.15
2022-10-22T01:24:11.560Z,1013.15
2022-10-22T01:25:12.161Z,1013.17
2022-10-22T01:26:12.826Z,1013.11
2022-10-22T01:27:13.414Z,1013.10
2022-10-22T01:28:14.015Z,1013.10
2022-10-22T01:29:14.614Z,1013.14
2022-10-22T01:30:15.221Z,1013.08
2022-10-22T01:31:15.891Z,1013.01
2022-10-22T01:32:16.493Z,1013.01
2022-10-22T01:33:17.942Z,1013.08
2022-10-22T01:34:18.544Z,1013.08
2022-10-22T01:35:19.148Z,1013.01
2022-10-22T01:36:20.600Z,1013.02
2022-10-22T01:37:21.205Z,1012.98
2022-10-22T01:38:22.599Z,1012.96
2022-10-22T01:39:24.050Z,1012.95
2022-10-22T01:40:24.653Z,1012.95
2022-10-22T01:41:25.253Z,1012.84
2022-10-22T01:42:25.854Z,1012.83
2022-10-22T01:43:26.456Z,1012.86
2022-10-22T01:44:27.109Z,1012.96
2022-10-22T01:45:27.723Z,1012.89
2022-10-22T01:46:28.320Z,1012.93
2022-10-22T01:47:28.918Z,1012.92
2022-10-22T01:48:29.523Z,1012.95
2022-10-22T01:49:31.037Z,1012.95
2022-10-22T01:50:31.642Z,1012.88
2022-10-22T01:51:32.238Z,1012.86
2022-10-22T01:52:32.837Z,1012.87
2022-10-22T01:53:33.480Z,1012.88
2022-10-22T01:54:34.095Z,1012.89
2022-10-22T01:55:34.743Z,1012.90
2022-10-22T01:56:35.343Z,1012.82
2022-10-22T01:57:35.940Z,1012.85
2022-10-22T01:58:36.545Z,1012.81
2022-10-22T01:59:37.138Z,1012.91
2022-10-22T02:00:38.018Z,1012.84
2022-10-22T02:01:38.631Z,1012.84
2022-10-22T02:02:39.246Z,1012.91
2022-10-22T02:03:39.862Z,1012.85
2022-10-22T02:04:40.515Z,1012.86
2022-10-22T02:05:41.111Z,1012.79
2022-10-22T02:06:41.711Z,1012.88
2022-10-22T02:07:42.705Z,1012.77
2022-10-22T02:08:43.684Z,1012.77
2022-10-22T02:09:44.276Z,1012.83
2022-10-22T02:10:44.878Z,1012.76
2022-10-22T02:11:45.479Z,1012.76
2022-10-22T02:12:46.082Z,1012.73
2022-10-22T02:13:47.033Z,1012.69
2022-10-22T02:14:48.082Z,1012.74
2022-10-22T02:15:48.677Z,1012.75
2022-10-22T02:16:49.346Z,1012.73
2022-10-22T02:17:49.948Z,1012.72
2022-10-22T02:18:50.544Z,1012.74
2022-10-22T02:19:51.146Z,1012.74
2022-10-22T02:20:51.747Z,1012.67
2022-10-22T02:21:52.348Z,1012.74
2022-10-22T02:22:52.947Z,1012.69
2022-10-22T02:23:53.545Z,1012.65
2022-10-22T02:24:54.144Z,1012.66
2022-10-22T02:25:54.742Z,1012.62
2022-10-22T02:26:55.564Z,1012.65
2022-10-22T02:27:56.162Z,1012.60
2022-10-22T02:28:56.761Z,1012.65
2022-10-22T02:29:57.360Z,1012.65
2022-10-22T02:30:57.960Z,1012.58
2022-10-22T02:31:58.558Z,1012.62
2022-10-22T02:32:59.162Z,1012.62
2022-10-22T02:34:00.607Z,1012.64
2022-10-22T02:35:01.213Z,1012.62
2022-10-22T02:36:01.814Z,1012.61
2022-10-22T02:37:02.417Z,1012.60
2022-10-22T02:38:03.019Z,1012.61
2022-10-22T02:39:03.670Z,1012.52
2022-10-22T02:40:04.281Z,1012.55
2022-10-22T02:41:04.931Z,1012.59
2022-10-22T02:42:05.532Z,1012.50
2022-10-22T02:43:06.933Z,1012.56
2022-10-22T02:44:07.687Z,1012.52
2022-10-22T02:45:08.284Z,1012.50
2022-10-22T02:46:08.881Z,1012.47
2022-10-22T02:47:09.484Z,1012.52
2022-10-22T02:48:10.158Z,1012.55
2022-10-22T02:49:10.738Z,1012.47
2022-10-22T02:50:11.336Z,1012.52
2022-10-22T02:51:11.934Z,1012.46
2022-10-22T02:52:12.535Z,1012.50
2022-10-22T02:53:13.132Z,1012.44
2022-10-22T02:54:13.734Z,1012.39
2022-10-22T02:55:14.331Z,1012.38
2022-10-22T02:56:14.935Z,1012.38
2022-10-22T02:57:15.552Z,1012.29
2022-10-22T02:58:16.149Z,1012.29
2022-10-22T02:59:16.752Z,1012.34
2022-10-22T03:00:17.399Z,1012.26
2022-10-22T03:01:18.105Z,1012.27
2022-10-22T03:02:18.716Z,1012.29
2022-10-22T03:03:19.382Z,1012.29
2022-10-22T03:04:19.981Z,1012.20
2022-10-22T03:05:20.582Z,1012.18
2022-10-22T03:06:21.278Z,1012.18
2022-10-22T03:07:21.890Z,1012.18
2022-10-22T03:08:22.489Z,1012.17
2022-10-22T03:09:24.829Z,1012.15
2022-10-22T03:10:24.686Z,1012.13
2022-10-22T03:11:25.284Z,1012.18
2022-10-22T03:12:25.883Z,1012.12
2022-10-22T03:13:26.482Z,1012.07
2022-10-22T03:14:27.129Z,1011.96
2022-10-22T03:16:28.328Z,1011.99
2022-10-22T03:17:28.931Z,1011.87
2022-10-22T03:18:29.529Z,1011.96
2022-10-22T03:19:30.129Z,1011.94
2022-10-22T03:20:30.729Z,1011.92
2022-10-22T03:21:31.330Z,1011.94
2022-10-22T03:22:31.926Z,1011.92
2022-10-22T03:23:32.530Z,1011.91
2022-10-22T03:24:33.130Z,1011.97
2022-10-22T03:25:33.734Z,1012.01
2022-10-22T03:26:34.405Z,1011.96
2022-10-22T03:27:35.007Z,1011.83
2022-10-22T03:28:35.613Z,1011.87
2022-10-22T03:29:36.209Z,1011.80
2022-10-22T03:30:36.810Z,1011.80
2022-10-22T03:31:37.410Z,1011.76
2022-10-22T03:32:38.008Z,1011.81
2022-10-22T03:33:38.609Z,1011.82
2022-10-22T03:34:39.259Z,1011.81
2022-10-22T03:35:39.861Z,1011.79
2022-10-22T03:36:40.459Z,1011.78
2022-10-22T03:37:41.252Z,1011.70
2022-10-22T03:38:42.073Z,1011.63
2022-10-22T03:39:42.672Z,1011.61
2022-10-22T03:40:43.271Z,1011.65
2022-10-22T03:41:43.872Z,1011.56
2022-10-22T03:42:44.468Z,1011.57
2022-10-22T03:43:45.068Z,1011.56
2022-10-22T03:44:45.916Z,1011.51
2022-10-22T03:45:46.519Z,1011.57
2022-10-22T03:46:47.253Z,1011.59
2022-10-22T03:47:47.851Z,1011.57
2022-10-22T03:48:48.448Z,1011.55
2022-10-22T03:49:49.198Z,1011.53
2022-10-22T03:50:49.793Z,1011.52
2022-10-22T03:51:50.397Z,1011.51
2022-10-22T03:52:50.992Z,1011.51
2022-10-22T03:53:51.591Z,1011.45
2022-10-22T03:54:52.190Z,1011.39
2022-10-22T03:55:52.792Z,1011.41
2022-10-22T03:56:53.394Z,1011.33
2022-10-22T03:57:53.998Z,1011.32
2022-10-22T03:58:54.597Z,1011.39
2022-10-22T03:59:55.202Z,1011.29
2022-10-22T04:00:55.830Z,1011.38
2022-10-22T04:01:56.467Z,1011.32
2022-10-22T04:02:57.217Z,1011.34
2022-10-22T04:03:57.821Z,1011.41
2022-10-22T04:04:58.424Z,1011.38
2022-10-22T04:05:59.027Z,1011.32
2022-10-22T04:06:59.631Z,1011.32
2022-10-22T04:08:00.234Z,1011.24
2022-10-22T04:09:00.881Z,1011.32
2022-10-22T04:10:01.483Z,1011.27
2022-10-22T04:11:02.081Z,1011.20
2022-10-22T04:12:02.732Z,1011.20
2022-10-22T04:13:03.330Z,1011.14
2022-10-22T04:14:03.931Z,1011.14
2022-10-22T04:15:04.531Z,1011.20
2022-10-22T04:16:05.133Z,1011.12
2022-10-22T04:17:05.733Z,1011.17
2022-10-22T04:18:06.339Z,1011.17
2022-10-22T04:19:06.935Z,1011.14
2022-10-22T04:20:07.537Z,1011.16
2022-10-22T04:21:08.138Z,1011.14
2022-10-22T04:22:08.737Z,1011.22
2022-10-22T04:23:09.336Z,1011.17
2022-10-22T04:24:09.938Z,1011.07
2022-10-22T04:25:10.535Z,1011.14
2022-10-22T04:26:11.134Z,1011.14
2022-10-22T04:27:11.731Z,1011.11
2022-10-22T04:28:12.335Z,1011.12
2022-10-22T04:29:15.983Z,1011.15
2022-10-22T04:30:14.574Z,1011.06
2022-10-22T04:31:15.196Z,1011.08
2022-10-22T04:32:15.800Z,1011.14
2022-10-22T04:33:16.400Z,1011.08
2022-10-22T04:34:17.055Z,1011.17
2022-10-22T04:35:17.694Z,1011.16
2022-10-22T04:36:18.312Z,1011.09
2022-10-22T04:37:18.925Z,1011.08
2022-10-22T04:38:19.526Z,1011.13
2022-10-22T04:39:20.125Z,1011.13
2022-10-22T04:40:20.728Z,1011.10
2022-10-22T04:41:21.378Z,1011.18
2022-10-22T04:42:21.979Z,1011.14
2022-10-22T04:43:22.580Z,1011.11
2022-10-22T04:44:23.182Z,1011.07
2022-10-22T04:45:23.843Z,1011.01
2022-10-22T04:46:24.442Z,1011.00
2022-10-22T04:47:25.043Z,1010.91
2022-10-22T04:48:25.646Z,1011.06
2022-10-22T04:49:26.245Z,1011.00
2022-10-22T04:50:26.844Z,1011.06
2022-10-22T04:51:27.442Z,1011.00
2022-10-22T04:52:28.042Z,1011.00
2022-10-22T04:53:28.690Z,1011.05
2022-10-22T04:54:32.262Z,1010.96
2022-10-22T04:56:31.639Z,1011.04
2022-10-22T04:57:32.230Z,1011.03
2022-10-22T04:58:32.831Z,1011.05
2022-10-22T04:59:33.430Z,1010.96
2022-10-22T05:00:34.039Z,1011.01
2022-10-22T05:01:37.016Z,1010.93
2022-10-22T05:02:36.236Z,1011.05
2022-10-22T05:03:36.831Z,1011.03
2022-10-22T05:04:37.434Z,1011.01
2022-10-22T05:05:38.035Z,1010.98
2022-10-22T05:06:38.636Z,1011.01
2022-10-22T05:07:39.546Z,1010.90
2022-10-22T05:08:40.360Z,1010.98
2022-10-22T05:09:40.948Z,1010.91
2022-10-22T05:10:41.548Z,1010.93
2022-10-22T05:11:42.201Z,1011.01
2022-10-22T05:12:42.805Z,1010.92
2022-10-22T05:13:43.406Z,1010.98
2022-10-22T05:14:44.858Z,1010.97
2022-10-22T05:15:45.590Z,1010.98
2022-10-22T05:17:47.640Z,1011.03
2022-10-22T05:18:48.240Z,1011.02
2022-10-22T05:19:48.840Z,1011.03
2022-10-22T05:20:49.439Z,1010.97
2022-10-22T05:21:50.036Z,1010.99
2022-10-22T05:22:50.637Z,1011.01
2022-10-22T05:23:51.235Z,1011.05
2022-10-22T05:24:51.835Z,1010.96
2022-10-22T05:25:52.433Z,1010.96
2022-10-22T05:26:53.032Z,1011.04
2022-10-22T05:27:56.186Z,1011.03
2022-10-22T05:28:55.223Z,1011.03
2022-10-22T05:29:55.822Z,1010.99
2022-10-22T05:30:56.474Z,1010.97
2022-10-22T05:31:57.274Z,1011.04
2022-10-22T05:32:57.872Z,1010.98
2022-10-22T05:33:59.325Z,1010.94
2022-10-22T05:34:59.925Z,1011.03
2022-10-22T05:36:00.527Z,1010.96
2022-10-22T05:37:01.127Z,1010.96
2022-10-22T05:38:01.880Z,1010.93
2022-10-22T05:39:02.548Z,1011.02
2022-10-22T05:40:18.904Z,1010.96
2022-10-22T05:41:04.748Z,1010.91
2022-10-22T05:42:05.349Z,1010.89
2022-10-22T05:43:06.806Z,1010.81
2022-10-22T05:44:07.405Z,1010.91
2022-10-22T05:45:08.012Z,1010.87
2022-10-22T05:46:08.689Z,1010.81
2022-10-22T05:47:09.295Z,1010.86
2022-10-22T05:48:09.899Z,1010.78
2022-10-22T05:49:11.351Z,1010.76
2022-10-22T05:50:11.953Z,1010.72
2022-10-22T05:51:12.553Z,1010.72
2022-10-22T05:52:13.151Z,1010.66
2022-10-22T05:53:13.750Z,1010.67
2022-10-22T05:54:14.351Z,1010.54
2022-10-22T05:55:15.016Z,1010.55
2022-10-22T05:56:15.618Z,1010.60
2022-10-22T05:57:16.223Z,1010.57
2022-10-22T05:58:16.821Z,1010.64
2022-10-22T05:59:17.427Z,1010.55
2022-10-22T06:00:18.024Z,1010.58
2022-10-22T06:01:18.634Z,1010.60
2022-10-22T06:02:19.266Z,1010.63
2022-10-22T06:03:19.847Z,1010.55
2022-10-22T06:04:20.451Z,1010.60
2022-10-22T06:05:21.070Z,1010.60
2022-10-22T06:06:21.671Z,1010.55
2022-10-22T06:07:22.270Z,1010.52
2022-10-22T06:08:22.872Z,1010.60
2022-10-22T06:09:23.538Z,1010.58
2022-10-22T06:10:24.138Z,1010.48
2022-10-22T06:11:24.745Z,1010.53
2022-10-22T06:12:25.347Z,1010.52
2022-10-22T06:13:25.949Z,1010.53
2022-10-22T06:14:26.552Z,1010.48
2022-10-22T06:15:27.154Z,1010.40
2022-10-22T06:16:27.753Z,1010.41
2022-10-22T06:17:28.356Z,1010.44
2022-10-22T06:18:28.961Z,1010.44
2022-10-22T06:19:29.562Z,1010.45
2022-10-22T06:20:30.166Z,1010.41
2022-10-22T06:21:30.769Z,1010.40
2022-10-22T06:22:31.366Z,1010.41
2022-10-22T06:23:31.974Z,1010.31
2022-10-22T06:24:32.570Z,1010.41
2022-10-22T06:25:33.171Z,1010.34
2022-10-22T06:26:33.775Z,1010.41
2022-10-22T06:27:34.372Z,1010.32
2022-10-22T06:28:34.973Z,1010.29
2022-10-22T06:29:35.639Z,1010.32
2022-10-22T06:30:36.237Z,1010.38
2022-10-22T06:31:36.887Z,1010.32
2022-10-22T06:32:37.823Z,1010.33
2022-10-22T06:33:38.643Z,1010.15
2022-10-22T06:34:39.242Z,1010.29
2022-10-22T06:35:39.842Z,1010.28
2022-10-22T06:37:42.245Z,1010.23
2022-10-22T06:38:43.170Z,1010.20
2022-10-22T06:39:43.774Z,1010.19
2022-10-22T06:40:44.373Z,1010.16
2022-10-22T06:41:45.822Z,1010.18
2022-10-22T06:42:46.424Z,1010.15
2022-10-22T06:43:47.436Z,1010.11
2022-10-22T06:44:48.107Z,1010.29
2022-10-22T06:45:48.711Z,1010.15
2022-10-22T06:46:50.119Z,1010.17
2022-10-22T06:47:50.709Z,1010.12
2022-10-22T06:48:51.310Z,1010.05
2022-10-22T06:49:51.910Z,1010.08
2022-10-22T06:50:52.512Z,1010.00
2022-10-22T06:51:53.112Z,1010.06
2022-10-22T06:52:53.718Z,1009.93
2022-10-22T06:53:54.383Z,1010.03
2022-10-22T06:54:54.986Z,1010.05
2022-10-22T06:55:55.710Z,1010.10
2022-10-22T06:56:56.309Z,1010.03
2022-10-22T06:57:57.813Z,1010.09
2022-10-22T06:58:58.420Z,1010.00
2022-10-22T06:59:59.018Z,1009.98
2022-10-22T07:00:59.639Z,1010.01
2022-10-22T07:02:00.248Z,1010.03
2022-10-22T07:03:00.846Z,1009.94
2022-10-22T07:04:01.450Z,1009.96
2022-10-22T07:05:02.047Z,1009.91
2022-10-22T07:06:02.649Z,1009.93
2022-10-22T07:07:03.249Z,1009.94
2022-10-22T07:08:03.849Z,1009.93
2022-10-22T07:09:04.567Z,1009.93
2022-10-22T07:10:05.221Z,1009.91
2022-10-22T07:11:05.814Z,1009.96
2022-10-22T07:12:06.407Z,1009.93
2022-10-22T07:13:06.997Z,1009.93
2022-10-22T07:14:07.590Z,1009.87
2022-10-22T07:15:08.184Z,1009.92
2022-10-22T07:16:08.774Z,1009.91
2022-10-22T07:17:09.753Z,1009.97
2022-10-22T07:18:10.298Z,1009.99
2022-10-22T07:19:10.891Z,1009.98
2022-10-22T07:20:11.482Z,1009.98
2022-10-22T07:21:12.076Z,1009.98
2022-10-22T07:22:12.667Z,1009.98
2022-10-22T07:23:13.262Z,1009.93
2022-10-22T07:24:13.854Z,1009.88
2022-10-22T07:25:14.463Z,1009.89
2022-10-22T07:26:15.042Z,1009.96
2022-10-22T07:27:15.632Z,1009.96
2022-10-22T07:28:16.226Z,1009.96
2022-10-22T07:29:16.818Z,1009.89
2022-10-22T07:30:17.409Z,1009.93
2022-10-22T07:31:18.015Z,1009.99
2022-10-22T07:32:22.836Z,1009.99
2022-10-22T07:33:20.189Z,1009.98
2022-10-22T07:34:21.702Z,1009.93
2022-10-22T07:35:22.284Z,1010.04
2022-10-22T07:36:22.876Z,1010.00
2022-10-22T07:37:23.526Z,1009.90
2022-10-22T07:38:24.118Z,1009.87
2022-10-22T07:39:24.710Z,1009.88
2022-10-22T07:40:25.302Z,1009.93
2022-10-22T07:41:26.046Z,1009.84
2022-10-22T07:42:26.692Z,1009.81
2022-10-22T07:43:27.289Z,1009.98
2022-10-22T07:44:27.888Z,1009.98
2022-10-22T07:45:28.489Z,1009.97
2022-10-22T07:46:29.089Z,1009.98
2022-10-22T07:47:29.689Z,1009.98
2022-10-22T07:48:30.326Z,1009.98
2022-10-22T07:49:30.998Z,1010.05
2022-10-22T07:50:31.690Z,1010.02
2022-10-22T07:51:32.300Z,1010.02
2022-10-22T07:52:32.899Z,1009.90
2022-10-22T07:53:33.498Z,1009.95
2022-10-22T07:54:34.098Z,1009.84
2022-10-22T07:55:34.699Z,1009.77
2022-10-22T07:56:35.450Z,1009.84
2022-10-22T07:57:36.045Z,1009.86
2022-10-22T07:58:36.633Z,1009.99
2022-10-22T07:59:37.227Z,1010.00
2022-10-22T08:00:37.877Z,1009.93
2022-10-22T08:01:38.521Z,1009.92
2022-10-22T08:02:39.575Z,1009.94
2022-10-22T08:03:40.479Z,1010.00
2022-10-22T08:04:41.072Z,1009.95
2022-10-22T08:05:41.666Z,1009.97
2022-10-22T08:06:45.751Z,1009.95
2022-10-22T08:07:43.845Z,1009.94
2022-10-22T08:08:44.568Z,1009.94
2022-10-22T08:09:45.141Z,1010.02
2022-10-22T08:10:45.734Z,1009.95
2022-10-22T08:11:46.326Z,1009.92
2022-10-22T08:12:47.717Z,1009.97
2022-10-22T08:13:48.593Z,1009.89
2022-10-22T08:14:49.194Z,1009.94
2022-10-22T08:15:51.502Z,1009.91
2022-10-22T08:16:51.396Z,1009.92
2022-10-22T08:17:51.995Z,1009.91
2022-10-22T08:18:52.701Z,1009.90
2022-10-22T08:19:53.304Z,1009.88
2022-10-22T08:20:53.898Z,1009.90
2022-10-22T08:21:54.498Z,1009.88
2022-10-22T08:22:55.097Z,1009.90
2022-10-22T08:23:55.720Z,1009.88
2022-10-22T08:24:56.349Z,1009.94
2022-10-22T08:25:56.956Z,1009.94
2022-10-22T08:26:57.617Z,1009.97
2022-10-22T08:27:58.244Z,1009.92
2022-10-22T08:28:58.840Z,1009.95
2022-10-22T08:29:59.439Z,1009.92
2022-10-22T08:31:00.025Z,1009.93
2022-10-22T08:32:00.617Z,1009.86
2022-10-22T08:33:01.209Z,1009.96
2022-10-22T08:34:01.803Z,1009.96
2022-10-22T08:35:02.395Z,1009.87
2022-10-22T08:36:03.038Z,1009.93
2022-10-22T08:37:03.634Z,1009.92
2022-10-22T08:38:04.228Z,1009.95
2022-10-22T08:39:04.820Z,1009.93
2022-10-22T08:40:05.425Z,1010.04
2022-10-22T08:41:06.012Z,1009.93
2022-10-22T08:42:06.603Z,1009.94
2022-10-22T08:43:07.199Z,1009.94
2022-10-22T08:44:07.792Z,1009.94
2022-10-22T08:45:08.384Z,1009.94
2022-10-22T08:46:08.977Z,1009.95
2022-10-22T08:47:10.434Z,1009.90
2022-10-22T08:48:11.032Z,1009.86
2022-10-22T08:49:11.632Z,1009.88
2022-10-22T08:50:12.283Z,1009.84
2022-10-22T08:51:12.879Z,1009.72
2022-10-22T08:52:13.477Z,1009.79
2022-10-22T08:53:14.076Z,1009.74
2022-10-22T08:54:14.677Z,1009.66
2022-10-22T08:55:15.280Z,1009.69
2022-10-22T08:56:15.934Z,1009.65
2022-10-22T08:57:16.537Z,1009.70
2022-10-22T08:58:17.183Z,1009.65
2022-10-22T08:59:17.781Z,1009.65
2022-10-22T09:00:18.451Z,1009.59
2022-10-22T09:01:19.051Z,1009.63
2022-10-22T09:02:19.705Z,1009.59
2022-10-22T09:03:20.291Z,1009.70
2022-10-22T09:04:20.943Z,1009.62
2022-10-22T09:05:21.535Z,1009.63
2022-10-22T09:06:22.147Z,1009.64
2022-10-22T09:07:22.723Z,1009.67
2022-10-22T09:08:23.318Z,1009.73
2022-10-22T09:09:23.969Z,1009.73
2022-10-22T09:10:24.563Z,1009.72
2022-10-22T09:11:25.151Z,1009.65
2022-10-22T09:12:25.745Z,1009.56
2022-10-22T09:13:26.334Z,1009.57
2022-10-22T09:14:26.927Z,1009.44
2022-10-22T09:15:27.519Z,1009.54
2022-10-22T09:16:28.113Z,1009.56
2022-10-22T09:17:28.704Z,1009.43
2022-10-22T09:18:29.311Z,1009.43
2022-10-22T09:19:29.911Z,1009.58
2022-10-22T09:20:30.511Z,1009.57
2022-10-22T09:21:31.110Z,1009.48
2022-10-22T09:22:31.766Z,1009.49
2022-10-22T09:23:32.383Z,1009.44
2022-10-22T09:24:33.262Z,1009.52
2022-10-22T09:25:34.198Z,1009.55
2022-10-22T09:26:34.799Z,1009.55
2022-10-22T09:27:35.398Z,1009.52
2022-10-22T09:28:35.999Z,1009.40
2022-10-22T09:29:36.649Z,1009.40
2022-10-22T09:30:37.415Z,1009.45
2022-10-22T09:31:38.003Z,1009.47
2022-10-22T09:32:38.972Z,1009.48
2022-10-22T09:33:39.740Z,1009.51
2022-10-22T09:34:40.340Z,1009.41
2022-10-22T09:35:40.928Z,1009.40
2022-10-22T09:36:41.520Z,1009.34
2022-10-22T09:37:42.111Z,1009.40
2022-10-22T09:38:42.703Z,1009.35
2022-10-22T09:39:43.298Z,1009.24
2022-10-22T09:40:43.906Z,1009.28
2022-10-22T09:41:44.491Z,1009.31
2022-10-22T09:42:45.084Z,1009.24
2022-10-22T09:43:45.681Z,1009.21
2022-10-22T09:44:48.436Z,1009.26
2022-10-22T09:45:48.711Z,1009.26
2022-10-22T09:46:49.306Z,1009.27
2022-10-22T09:48:01.601Z,1009.24
2022-10-22T09:48:51.481Z,1009.26
2022-10-22T09:49:52.076Z,1009.26
2022-10-22T09:50:52.667Z,1009.22
2022-10-22T09:51:53.274Z,1009.26
2022-10-22T09:52:53.895Z,1009.33
2022-10-22T09:53:54.493Z,1009.16
2022-10-22T09:54:55.095Z,1009.09
2022-10-22T09:56:57.097Z,1009.24
2022-10-22T09:57:57.735Z,1009.36
2022-10-22T09:58:58.493Z,1009.27
2022-10-22T09:59:59.162Z,1009.31
2022-10-22T10:00:59.765Z,1009.39
2022-10-22T10:02:13.421Z,1009.33
2022-10-22T10:03:02.023Z,1009.29
2022-10-22T10:04:04.549Z,1009.37
2022-10-22T10:05:04.261Z,1009.36
2022-10-22T10:06:06.131Z,1009.27
2022-10-22T10:07:07.254Z,1009.22
2022-10-22T10:08:07.842Z,1009.17
2022-10-22T10:09:08.497Z,1009.20
2022-10-22T10:10:09.088Z,1009.26
2022-10-22T10:11:09.692Z,1009.26
2022-10-22T10:12:10.279Z,1009.03
2022-10-22T10:13:10.874Z,1009.10
2022-10-22T10:14:11.467Z,1009.20
2022-10-22T10:15:12.069Z,1009.16
2022-10-22T10:16:12.653Z,1009.20
2022-10-22T10:17:13.243Z,1009.32
2022-10-22T10:18:13.836Z,1009.35
2022-10-22T10:19:14.430Z,1009.21
2022-10-22T10:20:15.096Z,1009.32
2022-10-22T10:21:15.795Z,1009.36
2022-10-22T10:22:16.378Z,1009.29
2022-10-22T10:23:17.906Z,1009.27
2022-10-22T10:24:18.561Z,1009.41
2022-10-22T10:25:19.167Z,1009.42
2022-10-22T10:26:19.768Z,1009.44
2022-10-22T10:27:20.369Z,1009.51
2022-10-22T10:28:20.978Z,1009.44
2022-10-22T10:29:21.571Z,1009.50
2022-10-22T10:30:22.175Z,1009.49
2022-10-22T10:31:22.773Z,1009.46
2022-10-22T10:32:24.454Z,1009.50
2022-10-22T10:33:24.969Z,1009.43
2022-10-22T10:34:25.570Z,1009.50
2022-10-22T10:35:26.171Z,1009.44
2022-10-22T10:36:26.972Z,1009.36
2022-10-22T10:37:27.571Z,1009.44
2022-10-22T10:38:29.703Z,1009.41
2022-10-22T10:39:29.763Z,1009.50
2022-10-22T10:40:30.348Z,1009.39
2022-10-22T10:41:30.943Z,1009.50
2022-10-22T10:42:31.538Z,1009.44
2022-10-22T10:43:32.143Z,1009.37
2022-10-22T10:44:32.747Z,1009.35
2022-10-22T10:45:33.351Z,1009.40
2022-10-22T10:46:36.963Z,1009.40
2022-10-22T10:47:35.551Z,1009.47
2022-10-22T10:48:36.149Z,1009.53
2022-10-22T10:49:37.595Z,1009.47
2022-10-22T10:50:38.252Z,1009.62
2022-10-22T10:51:38.852Z,1009.51
2022-10-22T10:52:39.454Z,1009.47
2022-10-22T10:53:40.054Z,1009.58
2022-10-22T10:54:40.670Z,1009.47
2022-10-22T10:55:41.258Z,1009.42
2022-10-22T10:56:41.858Z,1009.63
2022-10-22T10:57:42.818Z,1009.48
2022-10-22T10:58:43.577Z,1009.60
2022-10-22T10:59:45.028Z,1009.66
2022-10-22T11:00:45.629Z,1009.54
2022-10-22T11:01:46.257Z,1009.52
2022-10-22T11:02:46.932Z,1009.56
2022-10-22T11:03:47.692Z,1009.59
2022-10-22T11:04:48.294Z,1009.53
2022-10-22T11:05:48.895Z,1009.45
2022-10-22T11:06:49.502Z,1009.52
2022-10-22T11:07:54.907Z,1009.46
2022-10-22T11:08:51.737Z,1009.40
2022-10-22T11:09:53.297Z,1009.40
2022-10-22T11:10:53.897Z,1009.35
2022-10-22T11:11:54.495Z,1009.45
2022-10-22T11:12:55.101Z,1009.47
2022-10-22T11:13:55.774Z,1009.44
2022-10-22T11:14:56.378Z,1009.44
2022-10-22T11:15:56.980Z,1009.50
2022-10-22T11:16:57.581Z,1009.47
2022-10-22T11:17:58.183Z,1009.50
2022-10-22T11:18:58.786Z,1009.32
2022-10-22T11:20:00.245Z,1009.31
2022-10-22T11:21:00.987Z,1009.32
2022-10-22T11:22:01.586Z,1009.37
2022-10-22T11:23:18.946Z,1009.23
2022-10-22T11:24:03.783Z,1009.29
2022-10-22T11:25:04.384Z,1009.38
2022-10-22T11:26:04.985Z,1009.26
2022-10-22T11:27:06.386Z,1009.36
2022-10-22T11:28:11.114Z,1009.34
2022-10-22T11:29:08.578Z,1009.29
2022-10-22T11:30:09.305Z,1009.25
2022-10-22T11:31:09.980Z,1009.18
2022-10-22T11:32:10.630Z,1009.29
2022-10-22T11:33:11.235Z,1009.45
2022-10-22T11:34:32.637Z,1009.17
2022-10-22T11:35:14.274Z,1009.41
2022-10-22T11:36:15.022Z,1009.41
2022-10-22T11:37:15.623Z,1009.29
2022-10-22T11:38:16.221Z,1009.27
2022-10-22T11:39:16.974Z,1009.24
2022-10-22T11:40:17.574Z,1009.42
2022-10-22T11:41:18.180Z,1009.35
2022-10-22T11:42:18.779Z,1009.32
2022-10-22T11:43:19.381Z,1009.25
2022-10-22T11:44:19.984Z,1009.36
2022-10-22T11:45:20.585Z,1009.22
2022-10-22T11:46:21.188Z,1009.34
2022-10-22T11:47:21.838Z,1009.26
2022-10-22T11:48:22.438Z,1009.53
2022-10-22T11:49:23.039Z,1009.26
2022-10-22T11:50:23.640Z,1009.07
2022-10-22T11:51:24.243Z,1009.34
2022-10-22T11:52:24.846Z,1009.12
2022-10-22T11:53:25.446Z,1009.08
2022-10-22T11:54:26.046Z,1009.13
2022-10-22T11:55:26.645Z,1009.14
2022-10-22T11:56:27.245Z,1009.13
2022-10-22T11:57:27.843Z,1009.10
2022-10-22T11:58:28.448Z,1009.12
2022-10-22T11:59:29.048Z,1009.18
2022-10-22T12:00:29.677Z,1009.16
2022-10-22T12:01:30.351Z,1009.14
2022-10-22T12:02:30.980Z,1009.21
2022-10-22T12:03:31.583Z,1009.15
2022-10-22T12:04:32.319Z,1009.24
2022-10-22T12:05:32.913Z,1009.27
2022-10-22T12:06:33.514Z,1009.29
2022-10-22T12:07:34.116Z,1009.11
2022-10-22T12:08:34.761Z,1009.44
2022-10-22T12:09:35.386Z,1009.53
2022-10-22T12:10:35.982Z,1009.16
2022-10-22T12:11:36.584Z,1009.05
2022-10-22T12:12:37.187Z,1009.18
2022-10-22T12:13:37.789Z,1009.15
2022-10-22T12:14:39.184Z,1009.13
2022-10-22T12:15:39.788Z,1009.14
2022-10-22T12:16:56.910Z,1009.02
2022-10-22T12:17:41.982Z,1009.00
2022-10-22T12:18:42.651Z,1008.85